Lake Mohegan, New York
Current Conditions -  °F | °C
As of 4:56 PM on Tuesday 21 Oct 2014 (Local Time) from KHPN Reporting Station
Broken Clouds Broken Clouds  
Wind Chill: 61°   Ceiling: 3000
Heat Index: 61°   Visibility: 10mi
Dew Point: 51°   Wind: 6mph
Humidity: 70%   Direction: 120°ESE
Pressure: 29.84"   Gusts: NA
Location:  41.3106°N, 73.8477°W
Report Text: KHPN 212056Z 12005KT 10SM SCT024 BKN030 BKN070 16/11 A2984 RMK AO2 SLP104 60000 T01610106 58002
Loading
Personal Weather Stations






























Interactive Weather Map
Tropical Storm Tracking
New forecast layout! Learn more

10-Day Weather Forecast

Advertisements
Track Severe Weather on mobile